sensor_id;sensor_type;location;lat;lon;timestamp;temperature;humidity
65854;DHT22;52627;48.838;2.402;2022-10-31T00:01:24;16.55;70.16
65854;DHT22;52627;48.838;2.402;2022-10-31T00:03:53;16.52;70.17
65854;DHT22;52627;48.838;2.402;2022-10-31T00:06:21;16.50;70.24
65854;DHT22;52627;48.838;2.402;2022-10-31T00:08:55;16.50;70.28
65854;DHT22;52627;48.838;2.402;2022-10-31T00:11:24;16.50;70.30
65854;DHT22;52627;48.838;2.402;2022-10-31T00:13:52;16.48;70.35
65854;DHT22;52627;48.838;2.402;2022-10-31T00:16:21;16.45;70.48
65854;DHT22;52627;48.838;2.402;2022-10-31T00:18:51;16.40;70.71
65854;DHT22;52627;48.838;2.402;2022-10-31T00:21:19;16.36;70.76
65854;DHT22;52627;48.838;2.402;2022-10-31T00:23:46;16.33;70.80
65854;DHT22;52627;48.838;2.402;2022-10-31T00:26:14;16.31;70.82
65854;DHT22;52627;48.838;2.402;2022-10-31T00:28:41;16.29;70.84
65854;DHT22;52627;48.838;2.402;2022-10-31T00:31:09;16.27;70.90
65854;DHT22;52627;48.838;2.402;2022-10-31T00:33:38;16.25;71.04
65854;DHT22;52627;48.838;2.402;2022-10-31T00:36:07;16.22;71.24
65854;DHT22;52627;48.838;2.402;2022-10-31T00:38:35;16.20;71.46
65854;DHT22;52627;48.838;2.402;2022-10-31T00:41:02;16.16;71.65
65854;DHT22;52627;48.838;2.402;2022-10-31T00:43:29;16.12;71.74
65854;DHT22;52627;48.838;2.402;2022-10-31T00:45:56;16.09;71.82
65854;DHT22;52627;48.838;2.402;2022-10-31T00:48:24;16.06;72.04
65854;DHT22;52627;48.838;2.402;2022-10-31T00:50:51;16.02;72.14
65854;DHT22;52627;48.838;2.402;2022-10-31T00:53:18;15.99;72.24
65854;DHT22;52627;48.838;2.402;2022-10-31T00:55:45;15.98;72.32
65854;DHT22;52627;48.838;2.402;2022-10-31T00:58:13;15.97;72.39
65854;DHT22;52627;48.838;2.402;2022-10-31T01:00:46;15.96;72.41
65854;DHT22;52627;48.838;2.402;2022-10-31T01:03:29;15.97;72.49
65854;DHT22;52627;48.838;2.402;2022-10-31T01:06:02;15.97;72.58
65854;DHT22;52627;48.838;2.402;2022-10-31T01:08:31;15.96;72.70
65854;DHT22;52627;48.838;2.402;2022-10-31T01:13:35;15.92;72.98
65854;DHT22;52627;48.838;2.402;2022-10-31T01:16:03;15.92;73.05
65854;DHT22;52627;48.838;2.402;2022-10-31T01:18:32;15.92;73.10
65854;DHT22;52627;48.838;2.402;2022-10-31T01:21:03;15.93;73.11
65854;DHT22;52627;48.838;2.402;2022-10-31T01:23:33;15.94;73.17
65854;DHT22;52627;48.838;2.402;2022-10-31T01:26:08;15.97;73.24
65854;DHT22;52627;48.838;2.402;2022-10-31T01:28:45;15.97;73.31
65854;DHT22;52627;48.838;2.402;2022-10-31T01:31:16;15.99;73.39
65854;DHT22;52627;48.838;2.402;2022-10-31T01:33:45;16.00;73.42
65854;DHT22;52627;48.838;2.402;2022-10-31T01:38:48;15.98;73.75
65854;DHT22;52627;48.838;2.402;2022-10-31T01:41:17;15.94;73.84
65854;DHT22;52627;48.838;2.402;2022-10-31T01:46:25;15.87;74.08
65854;DHT22;52627;48.838;2.402;2022-10-31T01:49:04;15.85;74.17
65854;DHT22;52627;48.838;2.402;2022-10-31T01:51:33;15.82;74.28
65854;DHT22;52627;48.838;2.402;2022-10-31T01:54:06;15.83;74.28
65854;DHT22;52627;48.838;2.402;2022-10-31T01:56:36;15.85;74.30
65854;DHT22;52627;48.838;2.402;2022-10-31T01:59:06;15.88;74.37
65854;DHT22;52627;48.838;2.402;2022-10-31T02:01:36;15.88;74.47
65854;DHT22;52627;48.838;2.402;2022-10-31T02:04:05;15.90;74.42
65854;DHT22;52627;48.838;2.402;2022-10-31T02:09:23;15.95;74.44
65854;DHT22;52627;48.838;2.402;2022-10-31T02:11:52;15.96;74.49
65854;DHT22;52627;48.838;2.402;2022-10-31T02:14:21;15.94;74.52
65854;DHT22;52627;48.838;2.402;2022-10-31T02:16:49;15.93;74.59
65854;DHT22;52627;48.838;2.402;2022-10-31T02:19:18;15.93;74.60
65854;DHT22;52627;48.838;2.402;2022-10-31T02:22:09;15.93;74.59
65854;DHT22;52627;48.838;2.402;2022-10-31T02:33:48;16.01;74.59
65854;DHT22;52627;48.838;2.402;2022-10-31T02:36:22;16.03;74.66
65854;DHT22;52627;48.838;2.402;2022-10-31T02:42:04;16.04;74.66
65854;DHT22;52627;48.838;2.402;2022-10-31T02:44:45;16.06;74.65
65854;DHT22;52627;48.838;2.402;2022-10-31T02:47:15;16.04;74.70
65854;DHT22;52627;48.838;2.402;2022-10-31T02:49:53;16.01;74.70
65854;DHT22;52627;48.838;2.402;2022-10-31T02:52:24;15.99;74.79
65854;DHT22;52627;48.838;2.402;2022-10-31T02:54:53;15.94;74.85
65854;DHT22;52627;48.838;2.402;2022-10-31T02:57:22;15.90;74.96
65854;DHT22;52627;48.838;2.402;2022-10-31T02:59:53;15.86;75.04
65854;DHT22;52627;48.838;2.402;2022-10-31T03:05:31;15.76;75.25
65854;DHT22;52627;48.838;2.402;2022-10-31T03:10:57;15.71;75.30
65854;DHT22;52627;48.838;2.402;2022-10-31T03:13:34;15.70;75.45
65854;DHT22;52627;48.838;2.402;2022-10-31T03:16:18;15.67;75.53
65854;DHT22;52627;48.838;2.402;2022-10-31T03:19:08;15.64;75.70
65854;DHT22;52627;48.838;2.402;2022-10-31T03:21:47;15.61;75.76
65854;DHT22;52627;48.838;2.402;2022-10-31T03:24:30;15.61;75.70
65854;DHT22;52627;48.838;2.402;2022-10-31T03:26:59;15.62;75.75
65854;DHT22;52627;48.838;2.402;2022-10-31T03:29:28;15.62;75.87
65854;DHT22;52627;48.838;2.402;2022-10-31T03:31:59;15.62;75.93
65854;DHT22;52627;48.838;2.402;2022-10-31T03:34:29;15.61;76.00
65854;DHT22;52627;48.838;2.402;2022-10-31T03:36:59;15.61;76.00
65854;DHT22;52627;48.838;2.402;2022-10-31T03:39:28;15.61;76.05
65854;DHT22;52627;48.838;2.402;2022-10-31T03:41:57;15.61;76.10
65854;DHT22;52627;48.838;2.402;2022-10-31T03:44:29;15.62;76.13
65854;DHT22;52627;48.838;2.402;2022-10-31T03:46:57;15.61;76.23
65854;DHT22;52627;48.838;2.402;2022-10-31T03:49:25;15.60;76.30
65854;DHT22;52627;48.838;2.402;2022-10-31T03:52:02;15.62;76.30
65854;DHT22;52627;48.838;2.402;2022-10-31T03:54:40;15.63;76.34
65854;DHT22;52627;48.838;2.402;2022-10-31T03:59:53;15.68;76.39
65854;DHT22;52627;48.838;2.402;2022-10-31T04:02:24;15.69;76.39
65854;DHT22;52627;48.838;2.402;2022-10-31T04:04:54;15.70;76.44
65854;DHT22;52627;48.838;2.402;2022-10-31T04:07:23;15.67;76.58
65854;DHT22;52627;48.838;2.402;2022-10-31T04:09:54;15.62;76.66
65854;DHT22;52627;48.838;2.402;2022-10-31T04:12:22;15.58;76.72
65854;DHT22;52627;48.838;2.402;2022-10-31T04:14:51;15.57;76.74
65854;DHT22;52627;48.838;2.402;2022-10-31T04:17:20;15.56;76.86
65854;DHT22;52627;48.838;2.402;2022-10-31T04:19:49;15.50;76.97
65854;DHT22;52627;48.838;2.402;2022-10-31T04:22:16;15.47;77.06
65854;DHT22;52627;48.838;2.402;2022-10-31T04:24:43;15.46;77.10
65854;DHT22;52627;48.838;2.402;2022-10-31T04:27:11;15.45;77.14
65854;DHT22;52627;48.838;2.402;2022-10-31T04:29:38;15.41;77.20
65854;DHT22;52627;48.838;2.402;2022-10-31T04:32:05;15.41;77.20
65854;DHT22;52627;48.838;2.402;2022-10-31T04:34:33;15.40;77.22
65854;DHT22;52627;48.838;2.402;2022-10-31T04:37:00;15.39;77.30
65854;DHT22;52627;48.838;2.402;2022-10-31T04:39:27;15.38;77.31
65854;DHT22;52627;48.838;2.402;2022-10-31T04:41:55;15.38;77.31
65854;DHT22;52627;48.838;2.402;2022-10-31T04:44:22;15.39;77.33
65854;DHT22;52627;48.838;2.402;2022-10-31T04:46:50;15.40;77.37
65854;DHT22;52627;48.838;2.402;2022-10-31T04:49:18;15.39;77.42
65854;DHT22;52627;48.838;2.402;2022-10-31T04:51:45;15.37;77.53
65854;DHT22;52627;48.838;2.402;2022-10-31T04:54:12;15.35;77.55
65854;DHT22;52627;48.838;2.402;2022-10-31T04:56:39;15.33;77.60
65854;DHT22;52627;48.838;2.402;2022-10-31T04:59:07;15.34;77.59
65854;DHT22;52627;48.838;2.402;2022-10-31T05:01:34;15.36;77.54
65854;DHT22;52627;48.838;2.402;2022-10-31T05:04:02;15.39;77.58
65854;DHT22;52627;48.838;2.402;2022-10-31T05:06:29;15.39;77.60
65854;DHT22;52627;48.838;2.402;2022-10-31T05:08:57;15.38;77.60
65854;DHT22;52627;48.838;2.402;2022-10-31T05:11:24;15.40;77.60
65854;DHT22;52627;48.838;2.402;2022-10-31T05:13:51;15.44;77.52
65854;DHT22;52627;48.838;2.402;2022-10-31T05:16:19;15.43;77.59
65854;DHT22;52627;48.838;2.402;2022-10-31T05:18:46;15.40;77.61
65854;DHT22;52627;48.838;2.402;2022-10-31T05:21:13;15.42;77.61
65854;DHT22;52627;48.838;2.402;2022-10-31T05:23:40;15.44;77.60
65854;DHT22;52627;48.838;2.402;2022-10-31T05:26:11;15.47;77.60
65854;DHT22;52627;48.838;2.402;2022-10-31T05:28:39;15.48;77.60
65854;DHT22;52627;48.838;2.402;2022-10-31T05:31:06;15.50;77.56
65854;DHT22;52627;48.838;2.402;2022-10-31T05:33:33;15.53;77.53
65854;DHT22;52627;48.838;2.402;2022-10-31T05:36:00;15.55;77.56
65854;DHT22;52627;48.838;2.402;2022-10-31T05:38:28;15.55;77.60
65854;DHT22;52627;48.838;2.402;2022-10-31T05:40:55;15.57;77.60
65854;DHT22;52627;48.838;2.402;2022-10-31T05:43:27;15.58;77.53
65854;DHT22;52627;48.838;2.402;2022-10-31T05:45:55;15.61;77.50
65854;DHT22;52627;48.838;2.402;2022-10-31T05:48:23;15.62;77.50
65854;DHT22;52627;48.838;2.402;2022-10-31T05:50:50;15.61;77.57
65854;DHT22;52627;48.838;2.402;2022-10-31T05:53:17;15.60;77.56
65854;DHT22;52627;48.838;2.402;2022-10-31T05:55:45;15.60;77.54
65854;DHT22;52627;48.838;2.402;2022-10-31T05:58:12;15.61;77.59
65854;DHT22;52627;48.838;2.402;2022-10-31T06:00:39;15.61;77.56
65854;DHT22;52627;48.838;2.402;2022-10-31T06:03:07;15.61;77.53
65854;DHT22;52627;48.838;2.402;2022-10-31T06:05:40;15.59;77.53
65854;DHT22;52627;48.838;2.402;2022-10-31T06:08:08;15.58;77.51
65854;DHT22;52627;48.838;2.402;2022-10-31T06:10:35;15.58;77.55
65854;DHT22;52627;48.838;2.402;2022-10-31T06:13:02;15.53;77.67
65854;DHT22;52627;48.838;2.402;2022-10-31T06:15:30;15.47;77.70
65854;DHT22;52627;48.838;2.402;2022-10-31T06:18:00;15.44;77.72
65854;DHT22;52627;48.838;2.402;2022-10-31T06:20:30;15.44;77.70
65854;DHT22;52627;48.838;2.402;2022-10-31T06:22:57;15.46;77.70
65854;DHT22;52627;48.838;2.402;2022-10-31T06:25:25;15.48;77.67
65854;DHT22;52627;48.838;2.402;2022-10-31T06:27:52;15.49;77.62
65854;DHT22;52627;48.838;2.402;2022-10-31T06:30:20;15.52;77.60
65854;DHT22;52627;48.838;2.402;2022-10-31T06:32:48;15.54;77.60
65854;DHT22;52627;48.838;2.402;2022-10-31T06:35:16;15.55;77.60
65854;DHT22;52627;48.838;2.402;2022-10-31T06:37:51;15.57;77.53
65854;DHT22;52627;48.838;2.402;2022-10-31T06:40:22;15.58;77.53
65854;DHT22;52627;48.838;2.402;2022-10-31T06:42:56;15.58;77.53
65854;DHT22;52627;48.838;2.402;2022-10-31T06:45:24;15.58;77.53
65854;DHT22;52627;48.838;2.402;2022-10-31T06:47:52;15.56;77.58
65854;DHT22;52627;48.838;2.402;2022-10-31T06:50:40;15.56;77.60
65854;DHT22;52627;48.838;2.402;2022-10-31T06:53:07;15.58;77.53
65854;DHT22;52627;48.838;2.402;2022-10-31T06:55:36;15.60;77.54
65854;DHT22;52627;48.838;2.402;2022-10-31T06:58:03;15.59;77.53
65854;DHT22;52627;48.838;2.402;2022-10-31T07:00:31;15.57;77.60
65854;DHT22;52627;48.838;2.402;2022-10-31T07:02:59;15.54;77.60
65854;DHT22;52627;48.838;2.402;2022-10-31T07:05:28;15.56;77.60
65854;DHT22;52627;48.838;2.402;2022-10-31T07:07:56;15.56;77.60
65854;DHT22;52627;48.838;2.402;2022-10-31T07:10:29;15.54;77.68
65854;DHT22;52627;48.838;2.402;2022-10-31T07:13:04;15.54;77.69
65854;DHT22;52627;48.838;2.402;2022-10-31T07:15:33;15.55;77.70
65854;DHT22;52627;48.838;2.402;2022-10-31T07:18:02;15.60;77.63
65854;DHT22;52627;48.838;2.402;2022-10-31T07:20:30;15.62;77.66
65854;DHT22;52627;48.838;2.402;2022-10-31T07:22:58;15.64;77.68
65854;DHT22;52627;48.838;2.402;2022-10-31T07:25:26;15.63;77.72
65854;DHT22;52627;48.838;2.402;2022-10-31T07:27:54;15.62;77.77
65854;DHT22;52627;48.838;2.402;2022-10-31T07:30:21;15.63;77.80
65854;DHT22;52627;48.838;2.402;2022-10-31T07:32:49;15.66;77.79
65854;DHT22;52627;48.838;2.402;2022-10-31T07:35:18;15.69;77.79
65854;DHT22;52627;48.838;2.402;2022-10-31T07:37:46;15.73;77.73
65854;DHT22;52627;48.838;2.402;2022-10-31T07:40:14;15.75;77.79
65854;DHT22;52627;48.838;2.402;2022-10-31T07:42:43;15.77;77.79
65854;DHT22;52627;48.838;2.402;2022-10-31T07:45:12;15.77;77.80
65854;DHT22;52627;48.838;2.402;2022-10-31T07:47:42;15.77;77.85
65854;DHT22;52627;48.838;2.402;2022-10-31T07:50:14;15.77;77.90
65854;DHT22;52627;48.838;2.402;2022-10-31T07:52:43;15.77;77.95
65854;DHT22;52627;48.838;2.402;2022-10-31T07:55:11;15.72;77.97
65854;DHT22;52627;48.838;2.402;2022-10-31T07:57:38;15.76;77.90
65854;DHT22;52627;48.838;2.402;2022-10-31T08:00:06;15.79;77.92
65854;DHT22;52627;48.838;2.402;2022-10-31T08:02:35;15.79;77.98
65854;DHT22;52627;48.838;2.402;2022-10-31T08:05:02;15.78;78.00
65854;DHT22;52627;48.838;2.402;2022-10-31T08:07:29;15.78;78.02
65854;DHT22;52627;48.838;2.402;2022-10-31T08:10:07;15.82;78.00
65854;DHT22;52627;48.838;2.402;2022-10-31T08:12:35;15.85;78.00
65854;DHT22;52627;48.838;2.402;2022-10-31T08:15:03;15.87;77.99
65854;DHT22;52627;48.838;2.402;2022-10-31T08:17:30;15.90;78.00
65854;DHT22;52627;48.838;2.402;2022-10-31T08:20:02;15.92;78.00
65854;DHT22;52627;48.838;2.402;2022-10-31T08:22:30;15.95;78.00
65854;DHT22;52627;48.838;2.402;2022-10-31T08:24:58;15.99;78.00
65854;DHT22;52627;48.838;2.402;2022-10-31T08:27:25;16.02;78.00
65854;DHT22;52627;48.838;2.402;2022-10-31T08:29:52;16.06;78.00
65854;DHT22;52627;48.838;2.402;2022-10-31T08:32:20;16.10;77.96
65854;DHT22;52627;48.838;2.402;2022-10-31T08:34:47;16.14;77.91
65854;DHT22;52627;48.838;2.402;2022-10-31T08:37:14;16.17;77.91
65854;DHT22;52627;48.838;2.402;2022-10-31T08:39:46;16.19;77.90
65854;DHT22;52627;48.838;2.402;2022-10-31T08:42:14;16.23;77.90
65854;DHT22;52627;48.838;2.402;2022-10-31T08:44:41;16.23;77.90
65854;DHT22;52627;48.838;2.402;2022-10-31T08:47:08;16.26;77.89
65854;DHT22;52627;48.838;2.402;2022-10-31T08:49:36;16.27;77.86
65854;DHT22;52627;48.838;2.402;2022-10-31T08:52:03;16.28;77.82
65854;DHT22;52627;48.838;2.402;2022-10-31T08:54:30;16.27;77.82
65854;DHT22;52627;48.838;2.402;2022-10-31T08:56:58;16.30;77.83
65854;DHT22;52627;48.838;2.402;2022-10-31T08:59:25;16.33;77.80
65854;DHT22;52627;48.838;2.402;2022-10-31T09:01:53;16.38;77.75
65854;DHT22;52627;48.838;2.402;2022-10-31T09:04:20;16.41;77.74
65854;DHT22;52627;48.838;2.402;2022-10-31T09:06:47;16.43;77.70
65854;DHT22;52627;48.838;2.402;2022-10-31T09:09:34;16.48;77.65
65854;DHT22;52627;48.838;2.402;2022-10-31T09:12:02;16.53;77.60
65854;DHT22;52627;48.838;2.402;2022-10-31T09:14:29;16.61;77.51
65854;DHT22;52627;48.838;2.402;2022-10-31T09:16:56;16.63;77.44
65854;DHT22;52627;48.838;2.402;2022-10-31T09:19:24;16.66;77.44
65854;DHT22;52627;48.838;2.402;2022-10-31T09:21:52;16.73;77.41
65854;DHT22;52627;48.838;2.402;2022-10-31T09:24:20;16.83;77.31
65854;DHT22;52627;48.838;2.402;2022-10-31T09:26:48;16.93;77.20
65854;DHT22;52627;48.838;2.402;2022-10-31T09:29:15;17.06;77.10
65854;DHT22;52627;48.838;2.402;2022-10-31T09:31:42;17.19;76.93
65854;DHT22;52627;48.838;2.402;2022-10-31T09:34:11;17.41;76.92
65854;DHT22;52627;48.838;2.402;2022-10-31T09:36:38;17.76;76.72
65854;DHT22;52627;48.838;2.402;2022-10-31T09:39:05;18.24;76.26
65854;DHT22;52627;48.838;2.402;2022-10-31T09:44:18;18.95;75.00
65854;DHT22;52627;48.838;2.402;2022-10-31T09:47:27;19.34;74.50
65854;DHT22;52627;48.838;2.402;2022-10-31T09:52:51;20.25;73.33
65854;DHT22;52627;48.838;2.402;2022-10-31T09:55:29;20.55;72.58
65854;DHT22;52627;48.838;2.402;2022-10-31T09:58:03;20.90;72.46
65854;DHT22;52627;48.838;2.402;2022-10-31T10:00:31;21.26;71.65
65854;DHT22;52627;48.838;2.402;2022-10-31T10:05:54;21.76;70.16
65854;DHT22;52627;48.838;2.402;2022-10-31T10:08:27;21.87;69.37
65854;DHT22;52627;48.838;2.402;2022-10-31T10:16:30;22.59;67.45
65854;DHT22;52627;48.838;2.402;2022-10-31T10:22:08;23.02;66.20
65854;DHT22;52627;48.838;2.402;2022-10-31T10:25:12;23.17;65.80
65854;DHT22;52627;48.838;2.402;2022-10-31T10:31:01;23.18;64.06
65854;DHT22;52627;48.838;2.402;2022-10-31T10:33:32;22.99;64.21
65854;DHT22;52627;48.838;2.402;2022-10-31T10:36:06;22.77;63.03
65854;DHT22;52627;48.838;2.402;2022-10-31T10:38:42;22.46;63.42
65854;DHT22;52627;48.838;2.402;2022-10-31T10:41:18;22.38;62.86
65854;DHT22;52627;48.838;2.402;2022-10-31T10:43:48;22.25;62.62
65854;DHT22;52627;48.838;2.402;2022-10-31T10:46:18;22.31;62.42
65854;DHT22;52627;48.838;2.402;2022-10-31T10:49:21;22.59;62.08
65854;DHT22;52627;48.838;2.402;2022-10-31T10:51:58;22.81;61.69
65854;DHT22;52627;48.838;2.402;2022-10-31T10:54:46;23.15;61.51
65854;DHT22;52627;48.838;2.402;2022-10-31T10:59:57;23.74;60.81
65854;DHT22;52627;48.838;2.402;2022-10-31T11:02:29;23.92;59.48
65854;DHT22;52627;48.838;2.402;2022-10-31T11:04:58;23.82;59.18
65854;DHT22;52627;48.838;2.402;2022-10-31T11:07:37;23.77;58.98
65854;DHT22;52627;48.838;2.402;2022-10-31T11:10:06;23.93;58.68
65854;DHT22;52627;48.838;2.402;2022-10-31T11:12:41;24.03;57.99
65854;DHT22;52627;48.838;2.402;2022-10-31T11:15:21;24.07;57.31
65854;DHT22;52627;48.838;2.402;2022-10-31T11:17:51;24.07;56.64
65854;DHT22;52627;48.838;2.402;2022-10-31T11:22:47;24.06;55.76
65854;DHT22;52627;48.838;2.402;2022-10-31T11:28:02;23.95;54.86
65854;DHT22;52627;48.838;2.402;2022-10-31T11:30:36;23.80;54.66
65854;DHT22;52627;48.838;2.402;2022-10-31T11:33:16;23.71;54.72
65854;DHT22;52627;48.838;2.402;2022-10-31T11:35:46;23.68;54.52
65854;DHT22;52627;48.838;2.402;2022-10-31T11:38:19;23.60;54.22
65854;DHT22;52627;48.838;2.402;2022-10-31T11:40:57;23.53;54.47
65854;DHT22;52627;48.838;2.402;2022-10-31T11:43:27;23.55;54.41
65854;DHT22;52627;48.838;2.402;2022-10-31T11:45:55;23.62;54.41
65854;DHT22;52627;48.838;2.402;2022-10-31T11:48:23;23.64;54.08
65854;DHT22;52627;48.838;2.402;2022-10-31T11:50:52;23.65;54.22
65854;DHT22;52627;48.838;2.402;2022-10-31T11:53:26;23.69;54.15
65854;DHT22;52627;48.838;2.402;2022-10-31T11:58:56;23.66;53.99
65854;DHT22;52627;48.838;2.402;2022-10-31T12:01:25;23.57;53.99
65854;DHT22;52627;48.838;2.402;2022-10-31T12:03:54;23.49;54.22
65854;DHT22;52627;48.838;2.402;2022-10-31T12:06:32;23.45;54.38
65854;DHT22;52627;48.838;2.402;2022-10-31T12:09:01;23.42;54.40
65854;DHT22;52627;48.838;2.402;2022-10-31T12:14:08;23.29;54.73
65854;DHT22;52627;48.838;2.402;2022-10-31T12:24:39;23.30;54.73
65854;DHT22;52627;48.838;2.402;2022-10-31T12:29:59;23.50;54.65
65854;DHT22;52627;48.838;2.402;2022-10-31T12:32:38;23.59;54.48
65854;DHT22;52627;48.838;2.402;2022-10-31T12:46:21;23.35;54.07
65854;DHT22;52627;48.838;2.402;2022-10-31T12:49:39;23.27;54.20
65854;DHT22;52627;48.838;2.402;2022-10-31T12:52:15;23.25;54.14
65854;DHT22;52627;48.838;2.402;2022-10-31T12:57:50;23.18;54.30
65854;DHT22;52627;48.838;2.402;2022-10-31T13:00:18;23.16;54.40
65854;DHT22;52627;48.838;2.402;2022-10-31T13:05:51;23.06;54.61
65854;DHT22;52627;48.838;2.402;2022-10-31T13:08:23;22.98;54.76
65854;DHT22;52627;48.838;2.402;2022-10-31T13:11:08;22.90;54.91
65854;DHT22;52627;48.838;2.402;2022-10-31T13:24:58;22.63;55.92
65854;DHT22;52627;48.838;2.402;2022-10-31T13:27:30;22.57;56.12
65854;DHT22;52627;48.838;2.402;2022-10-31T13:30:14;22.57;56.25
65854;DHT22;52627;48.838;2.402;2022-10-31T13:38:02;22.36;56.86
65854;DHT22;52627;48.838;2.402;2022-10-31T13:43:27;22.30;57.22
65854;DHT22;52627;48.838;2.402;2022-10-31T13:45:58;22.24;57.37
65854;DHT22;52627;48.838;2.402;2022-10-31T13:48:35;22.19;57.62
65854;DHT22;52627;48.838;2.402;2022-10-31T13:51:07;22.10;57.87
65854;DHT22;52627;48.838;2.402;2022-10-31T13:56:24;21.98;58.22
65854;DHT22;52627;48.838;2.402;2022-10-31T13:58:59;21.96;58.41
65854;DHT22;52627;48.838;2.402;2022-10-31T14:01:31;21.95;58.56
65854;DHT22;52627;48.838;2.402;2022-10-31T14:04:21;21.95;58.69
65854;DHT22;52627;48.838;2.402;2022-10-31T14:06:53;21.92;58.89
65854;DHT22;52627;48.838;2.402;2022-10-31T14:09:25;21.93;58.98
65854;DHT22;52627;48.838;2.402;2022-10-31T14:11:55;21.93;59.14
65854;DHT22;52627;48.838;2.402;2022-10-31T14:14:29;21.87;59.39
65854;DHT22;52627;48.838;2.402;2022-10-31T14:16:59;21.82;59.55
65854;DHT22;52627;48.838;2.402;2022-10-31T14:19:27;21.80;59.67
65854;DHT22;52627;48.838;2.402;2022-10-31T14:21:54;21.77;59.78
65854;DHT22;52627;48.838;2.402;2022-10-31T14:26:56;21.79;59.99
65854;DHT22;52627;48.838;2.402;2022-10-31T14:29:26;21.80;60.06
65854;DHT22;52627;48.838;2.402;2022-10-31T14:32:04;21.83;60.11
65854;DHT22;52627;48.838;2.402;2022-10-31T14:34:41;21.86;60.15
65854;DHT22;52627;48.838;2.402;2022-10-31T14:43:34;21.85;60.33
65854;DHT22;52627;48.838;2.402;2022-10-31T14:51:43;21.76;60.64
65854;DHT22;52627;48.838;2.402;2022-10-31T14:54:34;21.73;60.76
65854;DHT22;52627;48.838;2.402;2022-10-31T14:57:06;21.71;60.83
65854;DHT22;52627;48.838;2.402;2022-10-31T14:59:40;21.70;60.95
65854;DHT22;52627;48.838;2.402;2022-10-31T15:02:15;21.70;60.99
65854;DHT22;52627;48.838;2.402;2022-10-31T15:04:46;21.70;61.02
65854;DHT22;52627;48.838;2.402;2022-10-31T15:07:16;21.69;61.10
65854;DHT22;52627;48.838;2.402;2022-10-31T15:09:57;21.69;61.19
65854;DHT22;52627;48.838;2.402;2022-10-31T15:12:31;21.68;61.18
65854;DHT22;52627;48.838;2.402;2022-10-31T15:15:17;21.67;61.22
65854;DHT22;52627;48.838;2.402;2022-10-31T15:17:59;21.66;61.27
65854;DHT22;52627;48.838;2.402;2022-10-31T15:20:28;21.65;61.30
65854;DHT22;52627;48.838;2.402;2022-10-31T15:22:56;21.63;61.32
65854;DHT22;52627;48.838;2.402;2022-10-31T15:25:32;21.61;61.38
65854;DHT22;52627;48.838;2.402;2022-10-31T15:28:00;21.59;61.41
65854;DHT22;52627;48.838;2.402;2022-10-31T15:30:28;21.57;61.45
65854;DHT22;52627;48.838;2.402;2022-10-31T15:32:56;21.55;61.49
65854;DHT22;52627;48.838;2.402;2022-10-31T15:35:26;21.55;61.55
65854;DHT22;52627;48.838;2.402;2022-10-31T15:37:56;21.53;61.61
65854;DHT22;52627;48.838;2.402;2022-10-31T15:40:25;21.49;61.69
65854;DHT22;52627;48.838;2.402;2022-10-31T15:42:57;21.47;61.78
65854;DHT22;52627;48.838;2.402;2022-10-31T15:45:28;21.43;61.88
65854;DHT22;52627;48.838;2.402;2022-10-31T15:47:58;21.40;61.97
65854;DHT22;52627;48.838;2.402;2022-10-31T15:50:40;21.36;62.00
65854;DHT22;52627;48.838;2.402;2022-10-31T15:53:14;21.32;62.05
65854;DHT22;52627;48.838;2.402;2022-10-31T15:55:49;21.29;62.03
65854;DHT22;52627;48.838;2.402;2022-10-31T15:58:18;21.27;62.09
65854;DHT22;52627;48.838;2.402;2022-10-31T16:00:56;21.26;62.07
65854;DHT22;52627;48.838;2.402;2022-10-31T16:03:26;21.22;61.99
65854;DHT22;52627;48.838;2.402;2022-10-31T16:05:57;21.19;61.99
65854;DHT22;52627;48.838;2.402;2022-10-31T16:13:58;21.12;61.97
65854;DHT22;52627;48.838;2.402;2022-10-31T16:16:28;21.10;61.93
65854;DHT22;52627;48.838;2.402;2022-10-31T16:19:02;21.07;61.87
65854;DHT22;52627;48.838;2.402;2022-10-31T16:21:34;21.06;61.83
65854;DHT22;52627;48.838;2.402;2022-10-31T16:26:55;21.00;61.72
65854;DHT22;52627;48.838;2.402;2022-10-31T16:29:34;20.96;61.68
65854;DHT22;52627;48.838;2.402;2022-10-31T16:32:23;20.95;61.70
65854;DHT22;52627;48.838;2.402;2022-10-31T16:37:27;20.91;61.65
65854;DHT22;52627;48.838;2.402;2022-10-31T16:39:54;20.88;61.57
65854;DHT22;52627;48.838;2.402;2022-10-31T16:42:22;20.86;61.58
65854;DHT22;52627;48.838;2.402;2022-10-31T16:44:49;20.82;61.61
65854;DHT22;52627;48.838;2.402;2022-10-31T16:47:17;20.81;61.71
65854;DHT22;52627;48.838;2.402;2022-10-31T16:49:46;20.78;61.95
65854;DHT22;52627;48.838;2.402;2022-10-31T16:52:16;20.75;62.24
65854;DHT22;52627;48.838;2.402;2022-10-31T16:54:43;20.70;62.51
65854;DHT22;52627;48.838;2.402;2022-10-31T16:57:15;20.65;62.76
65854;DHT22;52627;48.838;2.402;2022-10-31T16:59:48;20.60;63.04
65854;DHT22;52627;48.838;2.402;2022-10-31T17:02:20;20.55;63.22
65854;DHT22;52627;48.838;2.402;2022-10-31T17:04:48;20.49;63.45
65854;DHT22;52627;48.838;2.402;2022-10-31T17:07:18;20.43;63.76
65854;DHT22;52627;48.838;2.402;2022-10-31T17:09:45;20.36;64.64
65854;DHT22;52627;48.838;2.402;2022-10-31T17:12:14;20.26;65.07
65854;DHT22;52627;48.838;2.402;2022-10-31T17:14:47;20.18;65.33
65854;DHT22;52627;48.838;2.402;2022-10-31T17:17:16;20.12;65.63
65854;DHT22;52627;48.838;2.402;2022-10-31T17:19:43;20.06;65.96
65854;DHT22;52627;48.838;2.402;2022-10-31T17:22:11;20.00;66.29
65854;DHT22;52627;48.838;2.402;2022-10-31T17:24:39;19.93;66.76
65854;DHT22;52627;48.838;2.402;2022-10-31T17:27:06;19.86;66.97
65854;DHT22;52627;48.838;2.402;2022-10-31T17:29:33;19.82;67.38
65854;DHT22;52627;48.838;2.402;2022-10-31T17:32:01;19.69;68.48
65854;DHT22;52627;48.838;2.402;2022-10-31T17:34:30;19.48;69.36
65854;DHT22;52627;48.838;2.402;2022-10-31T17:36:57;19.27;69.98
65854;DHT22;52627;48.838;2.402;2022-10-31T17:39:24;19.10;70.06
65854;DHT22;52627;48.838;2.402;2022-10-31T17:41:52;19.00;70.24
65854;DHT22;52627;48.838;2.402;2022-10-31T17:44:19;18.90;70.58
65854;DHT22;52627;48.838;2.402;2022-10-31T17:46:46;18.82;70.70
65854;DHT22;52627;48.838;2.402;2022-10-31T17:49:14;18.76;71.18
65854;DHT22;52627;48.838;2.402;2022-10-31T17:51:41;18.72;71.36
65854;DHT22;52627;48.838;2.402;2022-10-31T17:54:08;18.68;71.77
65854;DHT22;52627;48.838;2.402;2022-10-31T17:56:36;18.63;72.22
65854;DHT22;52627;48.838;2.402;2022-10-31T17:59:03;18.58;72.48
65854;DHT22;52627;48.838;2.402;2022-10-31T18:01:32;18.55;72.62
65854;DHT22;52627;48.838;2.402;2022-10-31T18:03:59;18.52;72.87
65854;DHT22;52627;48.838;2.402;2022-10-31T18:06:26;18.48;72.93
65854;DHT22;52627;48.838;2.402;2022-10-31T18:08:54;18.47;73.25
65854;DHT22;52627;48.838;2.402;2022-10-31T18:11:23;18.44;73.60
65854;DHT22;52627;48.838;2.402;2022-10-31T18:13:54;18.40;73.99